Time;durP1;ratioP1;P1;durP2;ratioP2;P2;SDS_P1;SDS_P2;PMS_P1;PMS_P2;Temp;Humidity;BMP_temperature;BMP_pressure;BME280_temperature;BME280_humidity;BME280_pressure;Samples;Min_cycle;Max_cycle;Signal;HPM_P1;HPM_P2
2022/05/13 00:01:27;;;;;;;3.65;1.02;;;17.80;43.40;;;;;;5057881;28;20052;-49
2022/05/13 00:03:54;;;;;;;6.63;1.95;;;17.70;43.40;;;;;;5055994;28;20052;-44
2022/05/13 00:06:22;;;;;;;6.05;1.52;;;17.70;43.50;;;;;;5059180;28;20067;-44
2022/05/13 00:08:49;;;;;;;7.15;1.40;;;17.70;43.50;;;;;;5061290;28;20044;-44
2022/05/13 00:11:17;;;;;;;2.70;1.27;;;17.70;43.60;;;;;;5060115;28;20052;-46
2022/05/13 00:13:45;;;;;;;3.22;1.15;;;17.60;43.60;;;;;;5057457;28;20056;-45
2022/05/13 00:16:13;;;;;;;7.05;1.60;;;17.60;43.70;;;;;;5058184;28;20047;-44
2022/05/13 00:18:42;;;;;;;4.47;1.63;;;17.60;43.70;;;;;;5059727;28;20400;-44
2022/05/13 00:21:11;;;;;;;2.88;1.30;;;17.60;43.80;;;;;;5058678;28;20490;-44
2022/05/13 00:23:39;;;;;;;6.20;1.50;;;17.50;43.80;;;;;;5057453;28;20056;-44
2022/05/13 00:26:06;;;;;;;5.22;1.70;;;17.50;43.90;;;;;;5057943;28;20053;-44
2022/05/13 00:28:34;;;;;;;2.75;1.40;;;17.40;43.90;;;;;;5058029;28;20045;-44
2022/05/13 00:31:04;;;;;;;7.35;1.88;;;17.40;44.00;;;;;;5057104;28;20049;-44
2022/05/13 00:33:33;;;;;;;7.15;1.35;;;17.40;44.10;;;;;;5056664;28;20048;-44
2022/05/13 00:36:02;;;;;;;9.48;1.80;;;17.30;44.10;;;;;;5057459;28;20060;-44
2022/05/13 00:38:29;;;;;;;8.48;1.67;;;17.30;44.20;;;;;;5060047;28;20055;-44
2022/05/13 00:40:57;;;;;;;6.70;1.35;;;17.30;44.30;;;;;;5057294;28;20408;-44
2022/05/13 00:43:47;;;;;;;4.55;1.40;;;17.20;44.30;;;;;;5055018;28;20587;-44
2022/05/13 00:46:16;;;;;;;8.23;1.58;;;17.20;44.50;;;;;;5048965;28;20723;-44
2022/05/13 00:48:45;;;;;;;6.07;2.00;;;17.20;44.40;;;;;;5053778;28;20416;-44
2022/05/13 00:51:19;;;;;;;5.05;1.20;;;17.20;44.50;;;;;;5059697;28;20052;-46
2022/05/13 00:53:48;;;;;;;6.70;1.55;;;17.10;44.60;;;;;;5059092;28;20051;-49
2022/05/13 00:56:16;;;;;;;10.25;1.80;;;17.10;44.70;;;;;;5057277;28;20060;-44
2022/05/13 00:58:47;;;;;;;4.70;1.70;;;17.00;44.70;;;;;;5058950;28;20079;-45
2022/05/13 01:01:15;;;;;;;3.55;1.70;;;17.00;44.80;;;;;;5059284;28;20389;-47
2022/05/13 01:03:44;;;;;;;5.50;1.52;;;17.00;44.80;;;;;;5056862;28;20528;-44
2022/05/13 01:06:18;;;;;;;6.25;1.50;;;17.00;44.90;;;;;;5059227;28;20427;-44
2022/05/13 01:08:47;;;;;;;;;;;16.90;45.00;;;;;;5059872;28;20060;-44
2022/05/13 01:11:20;;;;;;;7.03;1.70;;;17.00;44.90;;;;;;5059207;28;19924;-44
2022/05/13 01:13:54;;;;;;;3.65;1.45;;;16.90;45.00;;;;;;5056223;28;20408;-46
2022/05/13 01:16:21;;;;;;;4.20;1.45;;;16.90;45.10;;;;;;5058578;28;20052;-44
2022/05/13 01:18:47;;;;;;;7.78;1.55;;;16.80;45.20;;;;;;5057944;28;20052;-44
2022/05/13 01:21:22;;;;;;;6.85;1.58;;;16.80;45.30;;;;;;5059615;28;20040;-46
2022/05/13 01:23:53;;;;;;;4.68;1.40;;;16.70;45.50;;;;;;5055750;28;20063;-45
2022/05/13 01:26:25;;;;;;;4.78;1.38;;;16.70;45.60;;;;;;5059566;28;20059;-46
2022/05/13 01:28:55;;;;;;;7.55;1.58;;;16.60;45.60;;;;;;5059619;28;20484;-44
2022/05/13 01:31:26;;;;;;;3.22;1.48;;;16.60;45.70;;;;;;5057194;28;20057;-44
2022/05/13 01:33:54;;;;;;;3.33;1.42;;;16.60;45.80;;;;;;5056217;28;20119;-44
2022/05/13 01:36:22;;;;;;;5.22;1.42;;;16.50;45.80;;;;;;5055759;28;20067;-43
2022/05/13 01:38:51;;;;;;;4.47;1.60;;;16.50;45.90;;;;;;5051272;28;20496;-44
2022/05/13 01:41:19;;;;;;;7.38;1.90;;;16.40;46.10;;;;;;5057205;28;20075;-44
2022/05/13 01:43:48;;;;;;;6.65;1.50;;;16.40;46.20;;;;;;5060488;28;20053;-44
2022/05/13 01:46:16;;;;;;;3.67;1.58;;;16.30;46.20;;;;;;5059509;28;20538;-44
2022/05/13 01:48:44;;;;;;;6.00;1.83;;;16.30;46.30;;;;;;5061692;28;20056;-44
2022/05/13 01:51:12;;;;;;;6.35;1.63;;;16.30;46.80;;;;;;5062248;28;20496;-44
2022/05/13 01:53:41;;;;;;;8.57;1.60;;;16.30;46.40;;;;;;5058917;28;20052;-44
2022/05/13 01:56:10;;;;;;;5.63;1.55;;;16.20;46.50;;;;;;5062274;28;20048;-48
2022/05/13 01:58:38;;;;;;;9.68;1.73;;;16.20;46.60;;;;;;5063083;28;20396;-44
2022/05/13 02:01:07;;;;;;;6.05;1.58;;;16.10;46.60;;;;;;5063242;28;20051;-43
2022/05/13 02:03:47;;;;;;;6.75;1.90;;;16.10;46.60;;;;;;5057460;28;20079;-44
2022/05/13 02:06:16;;;;;;;6.18;1.70;;;16.10;46.70;;;;;;5063472;28;20083;-44
2022/05/13 02:08:44;;;;;;;5.65;1.73;;;16.10;46.80;;;;;;5063805;28;20500;-44
2022/05/13 02:11:13;;;;;;;6.10;2.03;;;16.00;46.80;;;;;;5063618;28;20075;-44
2022/05/13 02:13:41;;;;;;;5.38;1.55;;;16.00;46.80;;;;;;5060019;28;20052;-44
2022/05/13 02:16:09;;;;;;;6.22;2.38;;;16.00;46.90;;;;;;5061148;28;20052;-43
2022/05/13 02:18:37;;;;;;;5.82;1.60;;;16.00;47.00;;;;;;5060041;28;20385;-45
2022/05/13 02:21:04;;;;;;;5.80;1.50;;;15.90;46.90;;;;;;5063278;28;20074;-44
2022/05/13 02:23:32;;;;;;;6.00;1.90;;;15.90;47.00;;;;;;5059266;28;20067;-44
2022/05/13 02:26:01;;;;;;;5.53;1.65;;;15.90;47.00;;;;;;5062657;28;20048;-44
2022/05/13 02:28:31;;;;;;;11.40;1.88;;;15.90;47.10;;;;;;5063388;28;20056;-44
2022/05/13 02:30:59;;;;;;;9.98;1.88;;;15.80;47.10;;;;;;5059703;28;20041;-44
2022/05/13 02:33:27;;;;;;;4.82;1.55;;;15.80;47.10;;;;;;5057763;28;20052;-45
2022/05/13 02:35:55;;;;;;;6.82;1.50;;;15.80;47.20;;;;;;5061736;28;20404;-44
2022/05/13 02:38:22;;;;;;;4.13;1.40;;;15.70;47.10;;;;;;5061730;28;20052;-48
2022/05/13 02:43:36;;;;;;;8.45;1.90;;;15.70;47.20;;;;;;5064276;28;20079;-46
2022/05/13 02:46:04;;;;;;;7.85;1.60;;;15.70;47.20;;;;;;5060646;28;20048;-44
2022/05/13 02:48:32;;;;;;;3.72;1.25;;;15.60;47.20;;;;;;5059535;28;20075;-44
2022/05/13 02:50:59;;;;;;;7.07;1.77;;;15.60;47.20;;;;;;5062196;28;20053;-45
2022/05/13 02:53:27;;;;;;;7.47;1.48;;;15.60;47.20;;;;;;5058911;28;20508;-44
2022/05/13 02:55:54;;;;;;;4.80;1.60;;;15.60;47.30;;;;;;5060837;28;20500;-45
2022/05/13 02:58:22;;;;;;;6.55;1.52;;;15.50;47.20;;;;;;5061272;28;20067;-48
2022/05/13 03:00:51;;;;;;;4.03;1.42;;;15.50;47.20;;;;;;5062316;28;20486;-44
2022/05/13 03:03:18;;;;;;;7.60;1.67;;;15.50;47.30;;;;;;5056878;28;20060;-47
2022/05/13 03:05:45;;;;;;;8.07;1.58;;;15.50;47.30;;;;;;5061326;28;20055;-44
2022/05/13 03:08:13;;;;;;;4.20;1.58;;;15.50;47.40;;;;;;5060989;28;20412;-45
2022/05/13 03:10:41;;;;;;;4.75;1.65;;;15.40;47.30;;;;;;5060884;28;20048;-44
2022/05/13 03:13:10;;;;;;;5.93;1.65;;;15.40;47.40;;;;;;5058140;28;20060;-44
2022/05/13 03:15:38;;;;;;;6.70;1.42;;;15.40;47.40;;;;;;5059024;28;20064;-44
2022/05/13 03:18:07;;;;;;;4.82;1.38;;;15.40;47.50;;;;;;5060919;28;20048;-44
2022/05/13 03:20:34;;;;;;;7.35;1.35;;;15.50;47.60;;;;;;5061552;28;20142;-44
2022/05/13 03:23:02;;;;;;;6.70;1.33;;;15.50;47.50;;;;;;5059150;28;20068;-44
2022/05/13 03:25:29;;;;;;;4.45;1.73;;;15.40;47.50;;;;;;5059226;28;20385;-48
2022/05/13 03:27:57;;;;;;;5.85;1.45;;;15.50;47.50;;;;;;5061812;28;20056;-44
2022/05/13 03:30:26;;;;;;;3.72;1.35;;;15.50;47.40;;;;;;5061144;28;20492;-44
2022/05/13 03:32:54;;;;;;;4.07;1.30;;;15.50;47.30;;;;;;5057549;28;20048;-44
2022/05/13 03:35:24;;;;;;;5.75;1.50;;;15.50;47.10;;;;;;5059779;28;20049;-44
2022/05/13 03:37:51;;;;;;;4.32;1.08;;;15.50;47.00;;;;;;5060789;28;20053;-44
2022/05/13 03:40:20;;;;;;;6.45;1.50;;;15.50;46.80;;;;;;5059391;28;20444;-44
2022/05/13 03:42:47;;;;;;;5.30;1.20;;;15.60;46.80;;;;;;5058617;28;20431;-46
2022/05/13 03:45:19;;;;;;;3.30;1.00;;;15.60;46.70;;;;;;5061246;28;20067;-46
2022/05/13 03:47:49;;;;;;;2.90;0.90;;;15.60;46.50;;;;;;5059723;28;20100;-45
2022/05/13 03:50:17;;;;;;;3.55;1.17;;;15.60;46.40;;;;;;5060556;28;20056;-44
2022/05/13 03:52:45;;;;;;;3.47;0.82;;;15.60;46.30;;;;;;5056855;28;20423;-44
2022/05/13 03:55:13;;;;;;;3.28;1.00;;;15.70;46.20;;;;;;5060121;28;20503;-45
2022/05/13 03:57:41;;;;;;;12.25;1.48;;;15.70;46.10;;;;;;5060312;28;20415;-44
2022/05/13 04:00:10;;;;;;;8.10;1.15;;;15.70;46.20;;;;;;5060588;28;20059;-45
2022/05/13 04:02:38;;;;;;;7.15;1.30;;;15.80;46.20;;;;;;5056209;28;20052;-44
2022/05/13 04:10:39;;;;;;;3.85;0.93;;;15.80;45.70;;;;;;5067237;28;20063;-45
2022/05/13 04:16:06;;;;;;;4.88;1.23;;;15.80;45.40;;;;;;5058563;28;20052;-46
2022/05/13 04:18:36;;;;;;;5.65;1.10;;;15.90;45.40;;;;;;5050284;28;20056;-44
2022/05/13 04:21:06;;;;;;;4.75;0.68;;;15.80;45.30;;;;;;5057629;28;20400;-44
2022/05/13 04:23:37;;;;;;;6.00;1.40;;;15.80;45.20;;;;;;5059116;28;20060;-44
2022/05/13 04:26:05;;;;;;;6.07;1.60;;;15.80;45.10;;;;;;5056969;28;20404;-44
2022/05/13 04:28:32;;;;;;;6.50;1.20;;;15.80;45.10;;;;;;5061699;28;20063;-45
2022/05/13 04:31:00;;;;;;;4.75;1.20;;;15.70;45.10;;;;;;5062027;28;20048;-48
2022/05/13 04:33:28;;;;;;;4.72;1.42;;;15.70;45.10;;;;;;5056279;28;20056;-44
2022/05/13 04:35:55;;;;;;;5.88;1.30;;;15.70;45.20;;;;;;5059275;28;20048;-45
2022/05/13 04:38:23;;;;;;;8.27;1.10;;;15.60;45.30;;;;;;5059095;28;20052;-44
2022/05/13 04:40:52;;;;;;;6.50;1.13;;;15.60;45.40;;;;;;5061706;28;20052;-45
2022/05/13 04:43:18;;;;;;;11.68;6.25;;;15.60;45.40;;;;;;5061151;28;20431;-44
2022/05/13 04:45:46;;;;;;;5.90;2.25;;;15.60;45.50;;;;;;5061452;28;20044;-45
2022/05/13 04:48:16;;;;;;;5.82;1.77;;;15.60;45.60;;;;;;5059395;28;20052;-44
2022/05/13 04:50:48;;;;;;;7.88;2.47;;;15.60;45.50;;;;;;5061742;28;20468;-44
2022/05/13 04:53:19;;;;;;;6.05;1.38;;;15.60;45.60;;;;;;5061460;28;20060;-47
2022/05/13 04:55:47;;;;;;;7.18;1.55;;;15.60;45.60;;;;;;5061660;28;20059;-44
2022/05/13 04:58:16;;;;;;;6.53;1.35;;;15.60;45.60;;;;;;5060705;28;20056;-44
2022/05/13 05:00:44;;;;;;;5.28;1.42;;;15.60;45.60;;;;;;5058743;28;20055;-45
2022/05/13 05:03:12;;;;;;;5.65;1.50;;;15.60;45.70;;;;;;5059955;28;20056;-44
2022/05/13 05:05:42;;;;;;;3.67;1.45;;;15.60;45.70;;;;;;5057690;28;20526;-44
2022/05/13 05:08:10;;;;;;;12.75;1.67;;;15.60;45.70;;;;;;5043752;28;20061;-44
2022/05/13 05:10:37;;;;;;;4.60;1.58;;;15.60;45.70;;;;;;5059979;28;20063;-45
2022/05/13 05:13:06;;;;;;;6.22;1.40;;;15.60;45.70;;;;;;5057961;28;20060;-45
2022/05/13 05:15:36;;;;;;;7.13;1.58;;;15.60;45.70;;;;;;5061044;28;20048;-47
2022/05/13 05:18:04;;;;;;;7.22;1.40;;;15.60;45.80;;;;;;5059899;28;20515;-44
2022/05/13 05:20:32;;;;;;;5.57;1.20;;;15.70;45.80;;;;;;5058628;28;20052;-44
2022/05/13 05:22:59;;;;;;;5.53;1.63;;;15.60;45.80;;;;;;5060910;28;20064;-45
2022/05/13 05:25:28;;;;;;;4.68;1.30;;;15.60;45.80;;;;;;5061239;28;20056;-44
2022/05/13 05:27:56;;;;;;;3.85;1.33;;;15.60;45.80;;;;;;5058191;28;20059;-44
2022/05/13 05:30:25;;;;;;;3.55;1.30;;;15.70;45.90;;;;;;5057714;28;20642;-44
2022/05/13 05:32:54;;;;;;;7.72;1.50;;;15.70;45.80;;;;;;5052643;28;20055;-47
2022/05/13 05:35:24;;;;;;;7.50;1.48;;;15.70;45.80;;;;;;5053474;28;20053;-49
2022/05/13 05:37:51;;;;;;;5.45;1.20;;;15.70;45.80;;;;;;5057953;28;20060;-44
2022/05/13 05:40:20;;;;;;;4.47;1.08;;;15.70;45.80;;;;;;5058983;28;20048;-45
2022/05/13 05:42:48;;;;;;;7.88;1.80;;;15.80;45.90;;;;;;5056455;28;20064;-44
2022/05/13 05:45:17;;;;;;;7.20;1.77;;;15.80;45.90;;;;;;5058592;28;20063;-47
2022/05/13 05:47:45;;;;;;;8.00;1.52;;;15.80;46.10;;;;;;5058695;28;20064;-44
2022/05/13 05:50:16;;;;;;;7.40;1.63;;;15.80;46.10;;;;;;5038691;28;20060;-44
2022/05/13 05:52:44;;;;;;;7.30;1.45;;;15.90;46.10;;;;;;5037266;28;20064;-44
2022/05/13 05:58:00;;;;;;;8.43;1.55;;;15.90;46.10;;;;;;5038805;28;20049;-44
2022/05/13 06:00:28;;;;;;;7.95;1.50;;;16.00;46.20;;;;;;5038072;28;20615;-44
2022/05/13 06:02:56;;;;;;;7.47;1.67;;;16.10;46.30;;;;;;5033607;28;20053;-44
2022/05/13 06:05:25;;;;;;;6.55;1.60;;;16.10;46.40;;;;;;5037578;28;20052;-46
2022/05/13 06:07:55;;;;;;;7.80;1.63;;;16.10;46.30;;;;;;5036713;28;20386;-45
2022/05/13 06:10:23;;;;;;;6.25;1.58;;;16.10;46.50;;;;;;5036882;28;20335;-44
2022/05/13 06:12:51;;;;;;;12.48;1.92;;;16.20;46.40;;;;;;5034511;28;20063;-45
2022/05/13 06:15:18;;;;;;;10.57;2.00;;;16.20;46.30;;;;;;5038213;28;20057;-44
2022/05/13 06:17:47;;;;;;;7.82;1.98;;;16.20;46.50;;;;;;5036690;28;20052;-44
2022/05/13 06:20:17;;;;;;;7.40;1.80;;;16.30;46.50;;;;;;5034832;28;20060;-44
2022/05/13 06:22:45;;;;;;;8.95;1.77;;;16.30;46.60;;;;;;5034958;28;20625;-43
2022/05/13 06:25:15;;;;;;;4.07;1.40;;;16.30;46.60;;;;;;5038937;28;20084;-44
2022/05/13 06:27:44;;;;;;;7.95;2.00;;;16.30;46.80;;;;;;5038033;28;20075;-44
2022/05/13 06:30:16;;;;;;;9.25;1.55;;;16.30;46.70;;;;;;5037018;28;20396;-44
2022/05/13 06:32:44;;;;;;;6.75;1.70;;;16.40;46.60;;;;;;5037215;28;20480;-44
2022/05/13 06:35:12;;;;;;;7.35;1.40;;;16.40;46.60;;;;;;5040525;28;20052;-45
2022/05/13 06:37:39;;;;;;;7.93;1.55;;;16.40;46.60;;;;;;5042222;28;20411;-44
2022/05/13 06:40:09;;;;;;;10.05;2.10;;;16.40;46.60;;;;;;5040424;28;20508;-45
2022/05/13 06:42:37;;;;;;;12.55;1.95;;;16.50;47.00;;;;;;5035994;28;20041;-44
2022/05/13 06:45:05;;;;;;;13.95;2.70;;;16.50;46.40;;;;;;5040606;28;20057;-44
2022/05/13 06:47:33;;;;;;;8.35;2.13;;;16.50;46.30;;;;;;5040908;28;20048;-44
2022/05/13 06:50:03;;;;;;;7.53;1.85;;;16.50;46.30;;;;;;5058774;28;20056;-48
2022/05/13 06:52:30;;;;;;;6.57;1.55;;;16.50;46.50;;;;;;5058099;28;20053;-44
2022/05/13 06:54:58;;;;;;;6.82;1.38;;;16.60;46.40;;;;;;5060910;28;20412;-44
2022/05/13 06:57:27;;;;;;;11.50;1.50;;;16.60;46.40;;;;;;5055860;28;20052;-44
2022/05/13 06:59:54;;;;;;;10.05;1.90;;;16.60;46.50;;;;;;5061539;28;20060;-48
2022/05/13 07:02:23;;;;;;;8.90;2.05;;;16.70;46.40;;;;;;5056279;28;20048;-44
2022/05/13 07:04:51;;;;;;;8.88;1.73;;;16.70;46.40;;;;;;5059583;28;20052;-44
2022/05/13 07:07:18;;;;;;;8.90;1.42;;;16.80;46.50;;;;;;5058267;28;20052;-46
2022/05/13 07:09:46;;;;;;;7.95;2.08;;;16.80;46.30;;;;;;5057582;28;20049;-44
2022/05/13 07:12:13;;;;;;;5.75;1.33;;;16.90;46.70;;;;;;5058570;28;20048;-44
2022/05/13 07:14:42;;;;;;;7.47;2.40;;;16.90;46.50;;;;;;5060984;28;20071;-44
2022/05/13 07:17:09;;;;;;;5.40;1.65;;;17.00;46.40;;;;;;5058975;28;20052;-47
2022/05/13 07:19:37;;;;;;;7.45;1.50;;;17.10;46.50;;;;;;5060344;28;20071;-45
2022/05/13 07:22:06;;;;;;;5.38;1.50;;;17.10;45.90;;;;;;5056565;28;20072;-46
2022/05/13 07:24:33;;;;;;;7.47;1.60;;;17.10;45.90;;;;;;5060943;28;20067;-44
2022/05/13 07:27:01;;;;;;;7.55;2.35;;;17.20;45.50;;;;;;5060965;28;20049;-44
2022/05/13 07:29:28;;;;;;;8.82;1.85;;;17.20;45.50;;;;;;5061134;28;20068;-45
2022/05/13 07:31:57;;;;;;;8.40;2.30;;;17.20;45.90;;;;;;5053368;28;20045;-45
2022/05/13 07:34:24;;;;;;;4.93;1.90;;;17.20;45.50;;;;;;5059695;28;20063;-44
2022/05/13 07:36:54;;;;;;;10.98;1.98;;;17.30;45.50;;;;;;5062383;28;20068;-46
2022/05/13 07:42:08;;;;;;;5.75;1.67;;;17.40;45.70;;;;;;5063333;28;20503;-44
2022/05/13 07:44:36;;;;;;;9.98;1.77;;;17.50;45.50;;;;;;5061435;28;20052;-44
2022/05/13 07:47:07;;;;;;;9.55;1.73;;;17.50;45.40;;;;;;5057643;28;20059;-43
2022/05/13 07:49:35;;;;;;;6.18;1.50;;;17.60;45.40;;;;;;5055541;28;20061;-43
2022/05/13 07:52:04;;;;;;;8.98;1.63;;;17.60;45.20;;;;;;5053858;28;20052;-50
2022/05/13 07:54:32;;;;;;;3.72;1.13;;;17.70;45.20;;;;;;5057276;28;21684;-44
2022/05/13 07:57:00;;;;;;;7.15;2.10;;;17.70;44.90;;;;;;5059589;28;20067;-45
2022/05/13 07:59:28;;;;;;;4.68;1.33;;;17.80;44.80;;;;;;5059097;28;20059;-44
2022/05/13 08:01:55;;;;;;;6.32;1.50;;;17.80;44.70;;;;;;5053998;28;20428;-43
2022/05/13 08:04:25;;;;;;;4.50;1.13;;;17.90;44.80;;;;;;5051107;28;20052;-46
2022/05/13 08:06:53;;;;;;;7.13;1.17;;;18.00;44.30;;;;;;5058340;28;20059;-44
2022/05/13 08:09:21;;;;;;;4.35;1.08;;;18.00;43.80;;;;;;5060913;28;20056;-44
2022/05/13 08:11:48;;;;;;;9.13;0.90;;;18.00;43.80;;;;;;5056192;28;20056;-47
2022/05/13 08:14:16;;;;;;;6.57;1.02;;;18.10;43.80;;;;;;5059013;28;20063;-46
2022/05/13 08:16:43;;;;;;;5.97;1.20;;;18.10;44.10;;;;;;5057171;28;20048;-45
2022/05/13 08:19:11;;;;;;;6.15;1.40;;;18.20;44.10;;;;;;5057938;28;20392;-43
2022/05/13 08:21:40;;;;;;;12.50;1.77;;;18.30;44.20;;;;;;5055916;28;20617;-44
2022/05/13 08:24:08;;;;;;;6.43;1.10;;;18.30;43.80;;;;;;5060385;28;20082;-44
2022/05/13 08:26:36;;;;;;;5.47;1.48;;;18.40;43.30;;;;;;5057030;28;20424;-44
2022/05/13 08:29:03;;;;;;;12.98;2.40;;;18.40;43.60;;;;;;5059412;28;20049;-44
2022/05/13 08:31:31;;;;;;;2.75;1.20;;;18.40;43.70;;;;;;5055484;28;20056;-45
2022/05/13 08:33:59;;;;;;;5.57;1.10;;;18.50;43.60;;;;;;5057486;28;20053;-42
2022/05/13 08:36:26;;;;;;;6.32;1.30;;;18.50;43.10;;;;;;5056828;28;20060;-45
2022/05/13 08:38:55;;;;;;;5.25;1.30;;;18.50;42.70;;;;;;5054624;28;20516;-47
2022/05/13 08:41:39;;;;;;;9.63;1.20;;;18.60;42.70;;;;;;5058721;28;20060;-44
2022/05/13 08:44:09;;;;;;;5.30;2.33;;;18.50;41.50;;;;;;5057436;28;20048;-46
2022/05/13 08:46:40;;;;;;;8.05;0.82;;;18.50;41.50;;;;;;5055044;28;20056;-44
2022/05/13 08:49:17;;;;;;;3.72;1.00;;;18.50;42.10;;;;;;5054033;28;20129;-44
2022/05/13 08:52:00;;;;;;;4.07;1.50;;;18.50;42.50;;;;;;5053984;28;20049;-44
2022/05/13 08:54:35;;;;;;;5.90;0.90;;;18.50;41.30;;;;;;5059724;28;20384;-45
2022/05/13 08:57:10;;;;;;;3.63;1.15;;;18.50;41.30;;;;;;5057807;28;20056;-44
2022/05/13 08:59:44;;;;;;;;;;;18.50;41.70;;;;;;5058027;28;20063;-45
2022/05/13 09:02:15;;;;;;;;;;;18.60;41.90;;;;;;5053709;28;20375;-45
2022/05/13 09:04:47;;;;;;;4.45;1.20;;;18.60;41.30;;;;;;5059432;28;19924;-44
2022/05/13 09:07:18;;;;;;;7.60;1.13;;;18.60;41.70;;;;;;5056147;28;20049;-43
2022/05/13 09:09:50;;;;;;;9.70;1.30;;;18.60;41.60;;;;;;5056305;28;20052;-43
2022/05/13 09:12:23;;;;;;;3.88;1.15;;;18.60;40.90;;;;;;5054430;28;20411;-44
2022/05/13 09:14:57;;;;;;;6.15;1.00;;;18.60;40.80;;;;;;5059757;28;20052;-44
2022/05/13 09:17:34;;;;;;;5.72;1.20;;;18.70;41.40;;;;;;5057921;28;20052;-43
2022/05/13 09:20:06;;;;;;;6.82;1.25;;;18.70;41.30;;;;;;5060339;28;20056;-44
2022/05/13 09:22:40;;;;;;;6.53;1.20;;;18.80;40.90;;;;;;5053863;28;20048;-43
2022/05/13 09:25:16;;;;;;;;;;;18.70;40.50;;;;;;5059087;28;20495;-44
2022/05/13 09:27:45;;;;;;;5.82;1.38;;;18.80;40.70;;;;;;5057412;28;19924;-43
2022/05/13 09:30:13;;;;;;;6.20;1.08;;;18.80;39.70;;;;;;5054889;28;20057;-44
2022/05/13 09:32:40;;;;;;;4.72;1.35;;;18.80;40.20;;;;;;5052674;28;20048;-43
2022/05/13 09:35:16;;;;;;;6.25;1.25;;;18.80;40.00;;;;;;5057640;28;20056;-43
2022/05/13 09:37:45;;;;;;;6.30;1.02;;;18.90;39.90;;;;;;5058574;28;20063;-43
2022/05/13 09:40:22;;;;;;;3.60;1.15;;;19.00;39.80;;;;;;5057590;28;20059;-45
2022/05/13 09:42:51;;;;;;;10.85;1.27;;;19.00;39.70;;;;;;5059304;28;20056;-42
2022/05/13 09:45:23;;;;;;;6.50;1.45;;;19.20;39.30;;;;;;5056896;28;20053;-44
2022/05/13 09:48:12;;;;;;;6.40;1.45;;;19.30;39.00;;;;;;5053395;28;20052;-43
2022/05/13 09:50:42;;;;;;;9.45;1.20;;;19.40;38.30;;;;;;5059885;28;20404;-45
2022/05/13 09:53:34;;;;;;;8.38;1.35;;;19.40;38.00;;;;;;5055179;28;20044;-47
2022/05/13 09:56:05;;;;;;;9.23;1.52;;;19.50;39.30;;;;;;5053768;28;20045;-44
2022/05/13 09:58:36;;;;;;;4.50;0.95;;;19.50;37.50;;;;;;5056560;28;20071;-44
2022/05/13 10:01:09;;;;;;;9.93;1.20;;;19.50;37.00;;;;;;5055002;28;20063;-46
2022/05/13 10:03:38;;;;;;;3.83;1.00;;;19.50;37.80;;;;;;5057506;28;20052;-43
2022/05/13 10:06:19;;;;;;;3.92;1.15;;;19.60;38.00;;;;;;5058795;28;20056;-44
2022/05/13 10:08:53;;;;;;;8.48;1.20;;;19.60;37.60;;;;;;5059763;28;20057;-47
2022/05/13 10:14:24;;;;;;;9.13;0.80;;;19.60;37.50;;;;;;5062106;28;20055;-44
2022/05/13 10:16:53;;;;;;;4.68;1.05;;;19.70;37.10;;;;;;5060109;28;20057;-44
2022/05/13 10:19:28;;;;;;;3.38;0.90;;;19.80;37.10;;;;;;5061526;28;20431;-44
2022/05/13 10:22:03;;;;;;;2.20;0.70;;;19.80;37.30;;;;;;5057388;28;20049;-43
2022/05/13 10:24:39;;;;;;;3.53;0.90;;;19.80;37.20;;;;;;5062124;28;20377;-49
2022/05/13 10:27:14;;;;;;;4.13;1.08;;;19.80;37.10;;;;;;5061352;28;20075;-44
2022/05/13 10:29:46;;;;;;;3.40;0.77;;;19.70;37.40;;;;;;5060623;28;20057;-43
2022/05/13 10:32:18;;;;;;;2.92;0.80;;;19.70;37.00;;;;;;5056707;28;20052;-44
2022/05/13 10:34:50;;;;;;;7.75;0.80;;;19.70;37.50;;;;;;5061168;28;20048;-45
2022/05/13 10:37:25;;;;;;;2.92;0.80;;;19.70;38.10;;;;;;5059688;28;20057;-43
2022/05/13 10:39:56;;;;;;;2.40;0.77;;;19.70;37.50;;;;;;5063701;28;20049;-44
2022/05/13 10:42:35;;;;;;;3.30;0.80;;;19.70;37.50;;;;;;5059444;28;20048;-45
2022/05/13 10:45:07;;;;;;;3.83;1.17;;;19.70;38.20;;;;;;5063005;28;20060;-44
2022/05/13 10:47:40;;;;;;;6.47;1.00;;;19.70;37.40;;;;;;5061389;28;20474;-45
2022/05/13 10:50:15;;;;;;;1.53;0.60;;;19.70;37.60;;;;;;5061357;28;20075;-44
2022/05/13 10:52:54;;;;;;;7.00;1.00;;;19.80;36.70;;;;;;5057137;28;20424;-44
2022/05/13 10:55:33;;;;;;;5.82;0.95;;;19.90;36.60;;;;;;5062175;28;20049;-45
2022/05/13 10:58:14;;;;;;;6.43;1.00;;;19.90;37.30;;;;;;5061185;28;20052;-45
2022/05/13 11:00:49;;;;;;;4.18;0.82;;;19.90;37.40;;;;;;5057100;28;20044;-46
2022/05/13 11:03:35;;;;;;;3.58;0.95;;;20.00;37.20;;;;;;5061034;28;20063;-47
2022/05/13 11:06:29;;;;;;;10.10;1.33;;;20.00;37.20;;;;;;5062046;28;20053;-44
2022/05/13 11:09:05;;;;;;;7.35;1.20;;;20.00;37.70;;;;;;5061829;28;20059;-48
2022/05/13 11:11:39;;;;;;;2.53;0.82;;;20.10;37.20;;;;;;5059520;28;20056;-44
2022/05/13 11:14:43;;;;;;;3.65;0.90;;;20.10;38.00;;;;;;5060811;28;20045;-44
2022/05/13 11:17:24;;;;;;;6.05;1.48;;;20.20;38.40;;;;;;5060674;28;20052;-43
2022/05/13 11:20:03;;;;;;;6.15;1.10;;;20.20;36.70;;;;;;5063013;28;20052;-44
2022/05/13 11:22:35;;;;;;;10.07;0.88;;;20.20;36.70;;;;;;5060843;28;20060;-45
2022/05/13 11:28:25;;;;;;;2.78;0.80;;;20.30;37.40;;;;;;5068199;28;20052;-44
2022/05/13 11:31:16;;;;;;;5.75;0.90;;;20.40;37.60;;;;;;5062337;28;20056;-44
2022/05/13 11:33:52;;;;;;;3.65;0.90;;;20.40;37.10;;;;;;5059983;28;20048;-43
2022/05/13 11:36:31;;;;;;;6.07;0.93;;;20.50;37.10;;;;;;5062548;28;20056;-44
2022/05/13 11:39:11;;;;;;;3.28;1.05;;;20.60;37.40;;;;;;5061602;28;20040;-44
2022/05/13 11:41:46;;;;;;;3.70;1.10;;;20.60;37.80;;;;;;5059159;28;20688;-44
2022/05/13 11:44:17;;;;;;;7.40;1.52;;;20.70;37.30;;;;;;5054025;28;20404;-46
2022/05/13 11:46:55;;;;;;;3.38;1.17;;;20.70;37.40;;;;;;5056847;28;20052;-43
2022/05/13 11:49:29;;;;;;;5.25;1.15;;;20.70;37.20;;;;;;5056608;28;20061;-45
2022/05/13 11:51:57;;;;;;;4.90;1.17;;;20.70;38.20;;;;;;5058688;28;21777;-45
2022/05/13 11:54:27;;;;;;;5.50;1.20;;;20.70;37.70;;;;;;5059306;28;20234;-44
2022/05/13 11:57:26;;;;;;;5.25;1.40;;;20.70;37.60;;;;;;5060203;28;20056;-44
2022/05/13 11:59:56;;;;;;;4.40;1.20;;;20.70;38.20;;;;;;4978039;28;20539;-44
2022/05/13 12:02:47;;;;;;;4.53;1.58;;;20.70;38.40;;;;;;5039570;28;20051;-44
2022/05/13 12:05:32;;;;;;;9.65;1.20;;;20.70;38.30;;;;;;5058056;28;20052;-44
2022/05/13 12:08:22;;;;;;;8.27;1.52;;;20.70;37.00;;;;;;5058892;28;20053;-45
2022/05/13 12:10:59;;;;;;;3.88;1.20;;;20.70;37.10;;;;;;5053307;28;20052;-44
2022/05/13 12:13:37;;;;;;;5.55;1.75;;;20.70;37.60;;;;;;5057386;28;20052;-44
2022/05/13 12:16:28;;;;;;;7.63;1.73;;;20.80;37.70;;;;;;5055007;28;20051;-45
2022/05/13 12:19:01;;;;;;;7.72;1.55;;;20.80;38.30;;;;;;5059183;28;20056;-43
2022/05/13 12:21:39;;;;;;;10.20;1.15;;;20.70;38.40;;;;;;5061464;28;20101;-44
2022/05/13 12:24:20;;;;;;;3.25;1.15;;;20.70;38.40;;;;;;5061013;28;20523;-44
2022/05/13 12:27:10;;;;;;;4.05;1.38;;;20.60;39.10;;;;;;5058367;28;20059;-43
2022/05/13 12:29:46;;;;;;;10.25;1.50;;;20.60;37.80;;;;;;5056059;28;20060;-44
2022/05/13 12:32:22;;;;;;;5.38;1.40;;;20.60;38.30;;;;;;5052247;28;20047;-46
2022/05/13 12:38:06;;;;;;;6.55;1.35;;;20.60;38.70;;;;;;5067028;28;20067;-44
2022/05/13 12:40:37;;;;;;;3.35;1.30;;;20.60;38.00;;;;;;5058582;28;20048;-45
2022/05/13 12:43:15;;;;;;;3.47;1.40;;;20.70;37.70;;;;;;5054045;28;20052;-43
2022/05/13 12:46:01;;;;;;;5.75;1.27;;;20.70;38.20;;;;;;5057695;28;20052;-44
2022/05/13 12:48:28;;;;;;;3.50;1.10;;;20.70;38.20;;;;;;5053468;28;20056;-44
2022/05/13 12:51:18;;;;;;;3.75;1.13;;;20.80;38.90;;;;;;5060052;28;20056;-45
2022/05/13 12:53:52;;;;;;;3.33;1.08;;;20.80;38.40;;;;;;5051568;28;20060;-44
2022/05/13 12:56:32;;;;;;;9.07;1.02;;;20.90;38.20;;;;;;5056907;28;20052;-44
2022/05/13 12:59:11;;;;;;;5.10;1.63;;;21.00;37.90;;;;;;5058455;28;20420;-44
2022/05/13 13:01:42;;;;;;;6.45;1.27;;;21.00;38.10;;;;;;5054810;28;20052;-45
2022/05/13 13:04:12;;;;;;;4.88;1.20;;;21.10;38.50;;;;;;5055656;28;20056;-44
2022/05/13 13:06:43;;;;;;;3.97;1.20;;;21.00;37.50;;;;;;5059735;28;20059;-47
2022/05/13 13:09:21;;;;;;;17.83;1.33;;;21.10;38.50;;;;;;5051826;28;20048;-44
2022/05/13 13:11:55;;;;;;;7.22;1.63;;;21.10;38.20;;;;;;5053064;28;20511;-44
2022/05/13 13:14:42;;;;;;;3.65;0.80;;;21.10;38.00;;;;;;5058937;28;20053;-44
2022/05/13 13:17:19;;;;;;;3.35;1.30;;;21.10;38.00;;;;;;5054449;28;20048;-47
2022/05/13 13:19:48;;;;;;;3.92;1.20;;;21.10;37.60;;;;;;5057789;28;20059;-45
2022/05/13 13:22:21;;;;;;;6.45;1.65;;;21.10;38.10;;;;;;5057969;28;20071;-44
2022/05/13 13:24:51;;;;;;;10.88;1.42;;;21.00;38.00;;;;;;5057756;28;20060;-45
2022/05/13 13:27:31;;;;;;;5.15;1.00;;;20.90;37.30;;;;;;5057867;28;20099;-44
2022/05/13 13:30:00;;;;;;;3.10;1.15;;;20.90;37.40;;;;;;5058085;28;20562;-46
2022/05/13 13:32:27;;;;;;;5.32;1.15;;;20.90;37.70;;;;;;5051321;28;20049;-45
2022/05/13 13:34:56;;;;;;;1.95;0.60;;;21.00;37.90;;;;;;5058772;28;20400;-44